Aeroporto :







RITROVATECI SU...

 
LOGIN :

Iscrizione | Disclaimer

   EN    FR    IT 

 









Sommario :    VFR   VFR Marginale   IFR   IFR Intensivo   IFR Molto Intensivo
Visibilità : 
Base nubi : 
>= 8 km
>= 3000ft
5 / 8 km
1000 / 3000 ft
1500m / 5 km
500 / 1000 ft
800 / 1500m
200 / 500 ft
< 800m
< 200 ft
Simboli :   Temporali  Nebbia  Neve Forte  Precipitazioni Forti  Vento > 20 kt






- Altitudine del aeroporto : 22 ft
- Codice IATA : YDP


CYDP - Nain

ULTIMO METAR :
  • 241200Z 00000KT 15SM SKC M26/M30 A3022 RMK SLP236

METARs OBSOLETI :
  • 241100Z 20004KT 15SM SKC M25/M30 A3020 RMK SLP230
  • 241000Z 00000KT 15SM SKC M25/M30 A3019 RMK SLP226

TAF TAF CYDP
Valido dal 24 a 11 ore il 24 a 23 ore UTC


241043Z 2411/2423 VRB03KT P6SM SKC
BECMG 2411/2413 26008KT RMK NXT FCST BY 241400Z



MetMap, La meteo Aeronautica in un colpo d'occhio ! - Copyright ORBIFLY Dicembre 2007 - Disclaimer

ORBIFLY MET'MAP TEAM :

Programmazione e sviluppo : Alexandra Zaïnal
Concezione : Baudouin d'Aumeries
Aiuto per la programmazione : Marc-Olivier Méhu
Supporto tecnico e logistico : Manuel Goepfert
Aiuto per la traduzione : Arnaldo La Scala

Contatto : metmap@orbifly.com




FONTI E CREDITI :

   NOAA